createdAt,value
2023-05-17T00:01:21.744Z,23.57
2023-05-17T00:05:15.196Z,23.48
2023-05-17T00:09:06.981Z,23.60
2023-05-17T00:13:06.332Z,23.51
2023-05-17T00:17:02.150Z,23.35
2023-05-17T00:21:01.462Z,23.37
2023-05-17T00:24:57.027Z,23.29
2023-05-17T00:28:56.424Z,23.33
2023-05-17T00:32:52.097Z,23.25
2023-05-17T00:36:51.414Z,23.14
2023-05-17T00:40:38.374Z,23.08
2023-05-17T00:44:23.323Z,22.99
2023-05-17T00:48:08.615Z,22.99
2023-05-17T00:51:54.082Z,22.93
2023-05-17T00:55:39.182Z,22.84
2023-05-17T00:59:24.295Z,22.80
2023-05-17T01:03:09.620Z,22.70
2023-05-17T01:07:02.829Z,22.66
2023-05-17T01:11:01.764Z,22.72
2023-05-17T01:14:56.865Z,22.67
2023-05-17T01:18:56.282Z,22.68
2023-05-17T01:22:51.924Z,22.51
2023-05-17T01:26:51.109Z,22.39
2023-05-17T01:30:47.044Z,22.53
2023-05-17T01:34:47.055Z,22.57
2023-05-17T01:38:43.577Z,22.54
2023-05-17T01:42:43.825Z,22.52
2023-05-17T01:46:41.780Z,22.49
2023-05-17T01:50:41.863Z,22.32
2023-05-17T01:54:40.396Z,22.23
2023-05-17T01:58:39.984Z,22.13
2023-05-17T02:02:36.691Z,22.19
2023-05-17T02:06:36.919Z,22.16
2023-05-17T02:10:33.344Z,22.03
2023-05-17T02:14:32.890Z,22.05
2023-05-17T02:18:29.660Z,22.04
2023-05-17T02:22:31.068Z,22.04
2023-05-17T02:26:27.626Z,21.93
2023-05-17T02:30:28.921Z,21.90
2023-05-17T02:34:27.177Z,21.86
2023-05-17T02:38:26.976Z,21.79
2023-05-17T02:42:24.130Z,21.74
2023-05-17T02:46:23.946Z,21.73
2023-05-17T02:50:21.160Z,21.64
2023-05-17T02:54:21.053Z,21.59
2023-05-17T02:58:19.393Z,21.55
2023-05-17T03:02:19.162Z,21.65
2023-05-17T03:06:17.076Z,21.52
2023-05-17T03:10:16.313Z,21.58
2023-05-17T03:14:15.350Z,21.59
2023-05-17T03:18:14.729Z,21.59
2023-05-17T03:22:13.279Z,21.64
2023-05-17T03:26:12.917Z,21.74
2023-05-17T03:30:16.299Z,21.75
2023-05-17T03:34:16.999Z,21.83
2023-05-17T03:38:14.505Z,21.81
2023-05-17T03:42:14.139Z,21.71
2023-05-17T03:46:12.042Z,20.50
2023-05-17T03:50:12.188Z,20.20
2023-05-17T03:54:09.905Z,21.07
2023-05-17T03:58:09.172Z,21.14
2023-05-17T04:02:06.890Z,21.96
2023-05-17T04:06:08.221Z,22.03
2023-05-17T04:10:06.652Z,22.58
2023-05-17T04:14:06.132Z,22.90
2023-05-17T04:18:04.234Z,23.22
2023-05-17T04:22:04.174Z,23.49
2023-05-17T04:26:01.971Z,23.71
2023-05-17T04:30:02.343Z,23.94
2023-05-17T04:34:00.336Z,24.20
2023-05-17T04:38:00.052Z,24.50
2023-05-17T04:41:56.633Z,24.69
2023-05-17T04:45:57.233Z,25.03
2023-05-17T04:49:54.994Z,25.17
2023-05-17T04:53:55.140Z,25.26
2023-05-17T04:57:52.029Z,25.41
2023-05-17T05:01:52.262Z,25.49
2023-05-17T05:05:48.829Z,25.51
2023-05-17T05:09:48.091Z,25.62
2023-05-17T05:13:46.168Z,25.78
2023-05-17T05:17:46.437Z,25.76
2023-05-17T05:21:43.929Z,25.93
2023-05-17T05:25:44.300Z,26.02
2023-05-17T05:29:42.241Z,26.11
2023-05-17T05:33:29.245Z,26.09
2023-05-17T05:37:16.201Z,26.22
2023-05-17T05:41:03.293Z,26.32
2023-05-17T05:44:48.614Z,26.30
2023-05-17T05:48:34.613Z,26.50
2023-05-17T05:52:19.871Z,26.73
2023-05-17T05:56:05.412Z,26.97
2023-05-17T05:59:50.240Z,27.05
2023-05-17T06:03:35.281Z,27.10
2023-05-17T06:07:26.868Z,27.17
2023-05-17T06:11:18.533Z,27.29
2023-05-17T06:15:20.878Z,27.50
2023-05-17T06:19:20.380Z,27.56
2023-05-17T06:23:18.128Z,27.49
2023-05-17T06:27:17.402Z,27.30
2023-05-17T06:31:12.466Z,27.26
2023-05-17T06:35:11.480Z,27.23
2023-05-17T06:39:06.723Z,27.23
2023-05-17T06:43:06.369Z,27.07
2023-05-17T06:47:01.892Z,27.27
2023-05-17T06:50:47.061Z,27.54
2023-05-17T06:54:32.050Z,27.74
2023-05-17T06:58:17.184Z,27.88
2023-05-17T07:02:02.441Z,27.90
2023-05-17T07:05:59.778Z,27.84
2023-05-17T07:10:01.348Z,28.00
2023-05-17T07:13:59.501Z,28.01
2023-05-17T07:18:01.343Z,27.94
2023-05-17T07:21:59.598Z,27.93
2023-05-17T07:25:58.946Z,28.01
2023-05-17T07:29:57.449Z,27.98
2023-05-17T07:33:56.708Z,28.61
2023-05-17T07:37:55.417Z,28.69
2023-05-17T07:41:57.182Z,28.68
2023-05-17T07:45:54.759Z,28.65
2023-05-17T07:49:56.322Z,28.44
2023-05-17T07:53:51.589Z,28.03
2023-05-17T07:57:51.624Z,27.83
2023-05-17T08:01:50.769Z,27.59
2023-05-17T08:05:49.381Z,27.65
2023-05-17T08:09:54.495Z,27.60
2023-05-17T08:13:49.634Z,27.81
2023-05-17T08:17:51.553Z,27.92
2023-05-17T08:21:46.640Z,28.17
2023-05-17T08:25:48.412Z,28.39
2023-05-17T08:29:47.501Z,28.57
2023-05-17T08:33:47.243Z,28.87
2023-05-17T08:37:44.856Z,29.31
2023-05-17T08:41:38.460Z,29.67
2023-05-17T08:45:33.836Z,29.92
2023-05-17T08:49:27.517Z,30.06
2023-05-17T08:53:23.800Z,30.24
2023-05-17T08:57:17.506Z,30.51
2023-05-17T09:01:12.791Z,30.48
2023-05-17T09:05:12.358Z,30.47
2023-05-17T09:09:07.657Z,30.48
2023-05-17T09:13:07.202Z,30.55
2023-05-17T09:16:58.803Z,30.46
2023-05-17T09:20:57.886Z,30.62
2023-05-17T09:24:49.739Z,30.83
2023-05-17T09:28:48.995Z,31.11
2023-05-17T09:32:44.752Z,31.43
2023-05-17T09:36:43.932Z,31.83
2023-05-17T09:40:39.695Z,32.22
2023-05-17T09:44:38.583Z,32.45
2023-05-17T09:48:34.603Z,32.60
2023-05-17T09:52:33.809Z,32.54
2023-05-17T09:56:28.952Z,32.73
2023-05-17T10:00:26.167Z,32.85
2023-05-17T10:04:21.810Z,33.01
2023-05-17T10:08:21.372Z,33.12
2023-05-17T10:12:16.916Z,33.21
2023-05-17T10:16:16.259Z,33.41
2023-05-17T10:20:12.124Z,33.63
2023-05-17T10:24:11.578Z,33.74
2023-05-17T10:28:07.057Z,33.70
2023-05-17T10:32:06.470Z,33.43
2023-05-17T10:35:59.488Z,33.19
2023-05-17T10:39:59.046Z,33.19
2023-05-17T10:43:54.738Z,33.61
2023-05-17T10:47:54.108Z,33.93
2023-05-17T10:51:49.719Z,33.93
2023-05-17T10:55:48.965Z,33.58
2023-05-17T10:59:44.993Z,33.23
2023-05-17T11:03:44.841Z,33.11
2023-05-17T11:07:44.771Z,32.98
2023-05-17T11:11:46.397Z,33.16
2023-05-17T11:15:44.982Z,33.74
2023-05-17T11:19:46.635Z,34.09
2023-05-17T11:23:44.815Z,34.46
2023-05-17T11:27:46.311Z,34.81
2023-05-17T11:31:43.861Z,35.05
2023-05-17T11:35:45.362Z,35.26
2023-05-17T11:39:43.825Z,35.80
2023-05-17T11:43:45.978Z,35.95
2023-05-17T11:47:43.897Z,35.61
2023-05-17T11:51:44.983Z,35.87
2023-05-17T11:55:42.786Z,36.00
2023-05-17T11:59:44.529Z,35.87
2023-05-17T12:03:42.926Z,35.83
2023-05-17T12:07:44.387Z,35.68
2023-05-17T12:11:42.957Z,34.70
2023-05-17T12:15:44.500Z,33.56
2023-05-17T12:19:42.984Z,32.53
2023-05-17T12:23:44.379Z,32.31
2023-05-17T12:27:41.938Z,33.83
2023-05-17T12:31:42.893Z,33.23
2023-05-17T12:35:40.954Z,32.95
2023-05-17T12:39:42.717Z,32.36
2023-05-17T12:43:40.852Z,33.25
2023-05-17T12:47:42.757Z,34.82
2023-05-17T12:51:40.971Z,36.05
2023-05-17T12:55:42.452Z,36.49
2023-05-17T12:59:41.048Z,36.47
2023-05-17T13:03:42.293Z,36.36
2023-05-17T13:07:41.069Z,35.91
2023-05-17T13:11:43.017Z,36.37
2023-05-17T13:15:41.014Z,36.56
2023-05-17T13:19:42.745Z,36.70
2023-05-17T13:23:41.129Z,36.55
2023-05-17T13:27:42.471Z,35.93
2023-05-17T13:31:41.026Z,36.24
2023-05-17T13:35:42.617Z,35.13
2023-05-17T13:39:40.875Z,34.58
2023-05-17T13:43:42.693Z,34.75
2023-05-17T13:47:35.980Z,34.84
2023-05-17T13:51:37.756Z,35.09
2023-05-17T13:55:31.060Z,36.07
2023-05-17T13:59:32.770Z,35.84
2023-05-17T14:03:31.282Z,35.45
2023-05-17T14:07:32.631Z,35.03
2023-05-17T14:11:31.314Z,34.73
2023-05-17T14:15:32.723Z,34.49
2023-05-17T14:19:31.162Z,34.32
2023-05-17T14:23:32.697Z,33.81
2023-05-17T14:27:31.614Z,33.75
2023-05-17T14:31:33.657Z,33.55
2023-05-17T14:35:32.140Z,33.50
2023-05-17T14:39:31.775Z,33.63
2023-05-17T14:43:29.257Z,33.66
2023-05-17T14:47:28.791Z,33.53
2023-05-17T14:51:26.509Z,33.32
2023-05-17T14:55:26.840Z,32.94
2023-05-17T14:59:24.528Z,32.93
2023-05-17T15:03:24.724Z,32.93
2023-05-17T15:07:28.644Z,33.02
2023-05-17T15:11:28.307Z,33.25
2023-05-17T15:15:29.333Z,33.20
2023-05-17T15:19:28.456Z,32.98
2023-05-17T15:23:30.210Z,32.82
2023-05-17T15:27:29.366Z,32.81
2023-05-17T15:31:30.848Z,32.54
2023-05-17T15:35:29.604Z,32.34
2023-05-17T15:39:31.288Z,32.09
2023-05-17T15:43:29.319Z,31.91
2023-05-17T15:47:42.356Z,31.87
2023-05-17T15:51:41.311Z,31.62
2023-05-17T15:55:42.837Z,31.36
2023-05-17T15:59:41.256Z,31.03
2023-05-17T16:03:39.298Z,30.73
2023-05-17T16:07:41.045Z,30.49
2023-05-17T16:11:39.483Z,30.34
2023-05-17T16:15:40.424Z,30.34
2023-05-17T16:19:38.483Z,30.40
2023-05-17T16:23:39.952Z,30.27
2023-05-17T16:27:38.329Z,30.20
2023-05-17T16:31:39.990Z,30.11
2023-05-17T16:35:38.360Z,30.01
2023-05-17T16:39:39.952Z,29.52
2023-05-17T16:43:39.925Z,28.94
2023-05-17T16:47:42.057Z,28.72
2023-05-17T16:51:41.918Z,28.59
2023-05-17T16:55:43.462Z,28.45
2023-05-17T16:59:40.438Z,28.50
2023-05-17T17:03:40.629Z,28.39
2023-05-17T17:07:37.789Z,28.31
2023-05-17T17:11:33.648Z,28.18
2023-05-17T17:15:29.593Z,28.02
2023-05-17T17:19:27.294Z,27.88
2023-05-17T17:23:24.664Z,27.63
2023-05-17T17:27:23.725Z,27.48
2023-05-17T17:31:19.536Z,27.33
2023-05-17T17:35:18.565Z,27.23
2023-05-17T17:39:13.574Z,27.09
2023-05-17T17:43:12.854Z,26.96
2023-05-17T17:47:08.875Z,26.83
2023-05-17T17:51:04.681Z,26.61
2023-05-17T17:55:03.757Z,26.42
2023-05-17T17:58:59.887Z,26.28
2023-05-17T18:02:59.440Z,26.22
2023-05-17T18:06:54.993Z,26.14
2023-05-17T18:10:50.620Z,26.01
2023-05-17T18:14:45.842Z,25.77
2023-05-17T18:18:41.529Z,25.62
2023-05-17T18:22:38.779Z,25.43
2023-05-17T18:26:35.785Z,25.25
2023-05-17T18:30:35.397Z,24.99
2023-05-17T18:34:30.707Z,24.83
2023-05-17T18:38:29.722Z,24.61
2023-05-17T18:42:28.689Z,24.29
2023-05-17T18:46:23.796Z,24.00
2023-05-17T18:50:22.875Z,23.83
2023-05-17T18:54:18.871Z,23.73
2023-05-17T18:58:15.282Z,23.53
2023-05-17T19:02:14.308Z,23.33
2023-05-17T19:06:09.643Z,23.30
2023-05-17T19:10:09.022Z,23.05
2023-05-17T19:14:08.268Z,22.80
2023-05-17T19:18:09.241Z,22.56
2023-05-17T19:22:04.729Z,22.55
2023-05-17T19:26:04.652Z,22.55
2023-05-17T19:29:59.892Z,22.38
2023-05-17T19:34:03.233Z,22.23
2023-05-17T19:37:58.896Z,22.15
2023-05-17T19:41:58.049Z,22.04
2023-05-17T19:45:54.198Z,21.95
2023-05-17T19:49:53.436Z,21.81
2023-05-17T19:53:54.382Z,21.67
2023-05-17T19:57:50.962Z,21.51
2023-05-17T20:01:53.380Z,21.28
2023-05-17T20:05:49.266Z,21.15
2023-05-17T20:09:53.381Z,21.07
2023-05-17T20:13:49.465Z,21.03
2023-05-17T20:17:50.900Z,20.94
2023-05-17T20:21:50.436Z,20.96
2023-05-17T20:25:55.431Z,20.75
2023-05-17T20:29:51.023Z,20.49
2023-05-17T20:33:48.222Z,20.47
2023-05-17T20:37:47.679Z,20.36
2023-05-17T20:41:46.948Z,20.24
2023-05-17T20:45:42.009Z,20.19
2023-05-17T20:49:41.515Z,20.09
2023-05-17T20:53:37.032Z,19.96
2023-05-17T20:57:34.105Z,20.05
2023-05-17T21:01:27.477Z,19.92
2023-05-17T21:05:30.590Z,19.85
2023-05-17T21:09:25.937Z,19.82
2023-05-17T21:13:25.055Z,19.63
2023-05-17T21:17:21.112Z,19.63
2023-05-17T21:21:20.689Z,19.51
2023-05-17T21:25:16.330Z,19.44
2023-05-17T21:29:13.322Z,19.40
2023-05-17T21:33:13.678Z,19.50
2023-05-17T21:37:13.041Z,19.37
2023-05-17T21:41:10.065Z,19.25
2023-05-17T21:45:06.220Z,19.17
2023-05-17T21:49:06.366Z,18.91
2023-05-17T21:53:05.545Z,18.89
2023-05-17T21:56:58.484Z,18.68
2023-05-17T22:01:01.785Z,18.58
2023-05-17T22:04:57.310Z,18.64
2023-05-17T22:08:56.958Z,18.57
2023-05-17T22:12:52.131Z,18.44
2023-05-17T22:16:51.192Z,18.54
2023-05-17T22:20:47.373Z,18.38
2023-05-17T22:24:44.577Z,18.34
2023-05-17T22:28:44.674Z,18.29
2023-05-17T22:32:43.522Z,18.23
2023-05-17T22:36:39.155Z,18.13
2023-05-17T22:40:38.628Z,18.12
2023-05-17T22:44:34.247Z,18.03
2023-05-17T22:48:33.352Z,17.96
2023-05-17T22:52:26.538Z,17.87
2023-05-17T22:56:29.704Z,17.83
2023-05-17T23:00:25.471Z,17.83
2023-05-17T23:04:21.278Z,17.67
2023-05-17T23:08:20.248Z,17.44
2023-05-17T23:12:22.006Z,17.39
2023-05-17T23:16:17.194Z,17.37
2023-05-17T23:20:06.359Z,17.32
2023-05-17T23:23:55.019Z,17.25
2023-05-17T23:27:41.497Z,17.24
2023-05-17T23:31:30.461Z,17.17
2023-05-17T23:35:15.428Z,17.25
2023-05-17T23:39:00.625Z,17.14
2023-05-17T23:42:45.869Z,17.08
2023-05-17T23:46:30.827Z,16.91
2023-05-17T23:50:16.019Z,16.95
2023-05-17T23:54:01.144Z,16.99
2023-05-17T23:57:46.420Z,16.75
